Seattle, Washington
Current Conditions -  °F | °C
As of 10:53 PM on Friday 24 Oct 2014 (Local Time) from KBFI Reporting Station
Light Rain Light Rain  
Wind Chill: 54°   Ceiling: 7000
Heat Index: 54°   Visibility: 10mi
Dew Point: 49°   Wind: 0mph
Humidity: 83%   Direction: NA
Pressure: 29.79"   Gusts: NA
Location:  47.6°N, 122.32°W
Report Text: KBFI 250553Z 00000KT 10SM -RA FEW055 BKN070 OVC085 12/09 A2979 RMK AO2 SLP088 P0005 60017 T01220094 10150 20122 58021
Loading
Personal Weather Stations






























Interactive Weather Map New forecast layout! Learn more

10-Day Weather Forecast

Advertisements
Track Severe Weather on mobile